createdAt,value
2023-04-26T00:00:19.776Z,7.17
2023-04-26T00:02:51.172Z,6.90
2023-04-26T00:05:19.743Z,5.57
2023-04-26T00:07:50.614Z,7.73
2023-04-26T00:10:22.572Z,6.13
2023-04-26T00:12:50.804Z,7.63
2023-04-26T00:15:19.336Z,8.30
2023-04-26T00:17:48.104Z,7.93
2023-04-26T00:20:16.526Z,5.70
2023-04-26T00:22:44.988Z,6.83
2023-04-26T00:25:14.078Z,6.87
2023-04-26T00:27:46.276Z,9.70
2023-04-26T00:30:15.635Z,10.03
2023-04-26T00:32:44.037Z,10.90
2023-04-26T00:35:12.575Z,12.33
2023-04-26T00:37:41.678Z,13.97
2023-04-26T00:40:11.176Z,16.70
2023-04-26T00:42:40.514Z,20.47
2023-04-26T00:45:10.995Z,22.00
2023-04-26T00:47:39.695Z,24.60
2023-04-26T00:50:10.749Z,29.60
2023-04-26T00:52:40.056Z,35.03
2023-04-26T00:55:10.308Z,37.97
2023-04-26T00:57:38.659Z,39.57
2023-04-26T01:00:08.215Z,40.80
2023-04-26T01:02:41.796Z,40.57
2023-04-26T01:05:11.193Z,41.23
2023-04-26T01:07:39.919Z,42.00
2023-04-26T01:10:09.533Z,43.07
2023-04-26T01:12:39.186Z,41.73
2023-04-26T01:15:08.439Z,42.57
2023-04-26T01:17:38.625Z,42.97
2023-04-26T01:20:09.920Z,43.60
2023-04-26T01:22:39.569Z,43.87
2023-04-26T01:25:08.917Z,43.73
2023-04-26T01:27:37.091Z,43.43
2023-04-26T01:30:05.916Z,44.30
2023-04-26T01:32:35.078Z,42.67
2023-04-26T01:35:03.704Z,43.30
2023-04-26T01:37:31.922Z,42.87
2023-04-26T01:40:01.656Z,41.20
2023-04-26T01:42:29.794Z,41.50
2023-04-26T01:44:58.167Z,42.97
2023-04-26T01:47:27.734Z,43.87
2023-04-26T01:49:55.951Z,42.57
2023-04-26T01:52:24.436Z,42.30
2023-04-26T01:54:52.566Z,43.23
2023-04-26T01:57:21.976Z,43.60
2023-04-26T01:59:50.062Z,43.47
2023-04-26T02:02:18.915Z,43.10
2023-04-26T02:04:47.178Z,43.17
2023-04-26T02:07:15.663Z,43.50
2023-04-26T02:09:43.913Z,43.03
2023-04-26T02:12:12.263Z,42.57
2023-04-26T02:14:42.039Z,43.03
2023-04-26T02:17:11.260Z,44.30
2023-04-26T02:19:39.474Z,42.77
2023-04-26T02:22:08.112Z,43.40
2023-04-26T02:24:36.610Z,44.87
2023-04-26T02:27:05.587Z,42.97
2023-04-26T02:29:43.028Z,43.30
2023-04-26T02:32:13.202Z,43.13
2023-04-26T02:34:44.122Z,42.77
2023-04-26T02:37:12.558Z,42.93
2023-04-26T02:39:41.212Z,42.77
2023-04-26T02:42:11.280Z,42.17
2023-04-26T02:44:40.260Z,42.67
2023-04-26T02:47:09.211Z,42.10
2023-04-26T02:49:38.884Z,43.60
2023-04-26T02:52:07.406Z,41.63
2023-04-26T02:54:37.959Z,42.80
2023-04-26T02:57:05.970Z,42.57
2023-04-26T02:59:34.017Z,42.80
2023-04-26T03:02:02.144Z,42.83
2023-04-26T03:04:33.942Z,44.60
2023-04-26T03:07:03.838Z,41.03
2023-04-26T03:09:32.200Z,42.63
2023-04-26T03:12:00.337Z,42.40
2023-04-26T03:14:28.453Z,43.60
2023-04-26T03:16:59.112Z,42.77
2023-04-26T03:19:28.666Z,43.37
2023-04-26T03:21:57.524Z,42.47
2023-04-26T03:24:28.429Z,43.10
2023-04-26T03:26:58.065Z,42.77
2023-04-26T03:29:28.180Z,41.37
2023-04-26T03:31:57.038Z,41.53
2023-04-26T03:34:25.359Z,43.10
2023-04-26T03:36:53.733Z,43.23
2023-04-26T03:39:22.036Z,44.33
2023-04-26T03:41:53.830Z,43.17
2023-04-26T03:44:22.109Z,43.23
2023-04-26T03:46:51.165Z,43.27
2023-04-26T03:49:21.119Z,42.37
2023-04-26T03:51:49.271Z,43.33
2023-04-26T03:54:20.409Z,42.80
2023-04-26T03:56:48.742Z,43.10
2023-04-26T03:59:18.283Z,43.77
2023-04-26T04:01:46.458Z,43.97
2023-04-26T04:04:15.174Z,43.17
2023-04-26T04:06:47.102Z,43.77
2023-04-26T04:09:15.937Z,42.87
2023-04-26T04:11:45.162Z,43.07
2023-04-26T04:14:14.677Z,42.87
2023-04-26T04:16:45.856Z,43.90
2023-04-26T04:19:14.366Z,42.70
2023-04-26T04:21:45.661Z,42.90
2023-04-26T04:24:15.690Z,43.37
2023-04-26T04:26:44.059Z,42.53
2023-04-26T04:29:12.373Z,42.57
2023-04-26T04:31:41.839Z,42.83
2023-04-26T04:34:11.563Z,40.90
2023-04-26T04:36:40.804Z,42.20
2023-04-26T04:39:13.876Z,42.83
2023-04-26T04:41:47.622Z,42.23
2023-04-26T04:44:17.223Z,41.27
2023-04-26T04:46:47.590Z,41.33
2023-04-26T04:49:18.781Z,43.37
2023-04-26T04:51:47.025Z,40.87
2023-04-26T04:54:16.688Z,41.17
2023-04-26T04:56:45.246Z,41.53
2023-04-26T04:59:13.654Z,41.33
2023-04-26T05:01:42.091Z,41.50
2023-04-26T05:04:10.920Z,40.83
2023-04-26T05:06:41.364Z,41.13
2023-04-26T05:09:09.666Z,41.53
2023-04-26T05:11:37.869Z,40.63
2023-04-26T05:14:06.506Z,39.13
2023-04-26T05:16:34.730Z,39.63
2023-04-26T05:19:03.015Z,40.27
2023-04-26T05:21:31.643Z,39.80
2023-04-26T05:24:01.483Z,39.47
2023-04-26T05:26:29.655Z,39.37
2023-04-26T05:28:57.977Z,39.20
2023-04-26T05:31:26.294Z,39.33
2023-04-26T05:33:54.518Z,39.10
2023-04-26T05:36:22.990Z,39.47
2023-04-26T05:38:51.128Z,38.07
2023-04-26T05:41:20.608Z,39.40
2023-04-26T05:43:51.867Z,38.07
2023-04-26T05:46:20.379Z,39.03
2023-04-26T05:48:48.654Z,39.27
2023-04-26T05:51:16.880Z,38.00
2023-04-26T05:53:45.033Z,36.33
2023-04-26T05:56:13.251Z,35.17
2023-04-26T05:58:46.369Z,35.10
2023-04-26T06:01:15.078Z,33.87
2023-04-26T06:03:45.836Z,32.30
2023-04-26T06:06:15.454Z,33.03
2023-04-26T06:08:44.345Z,32.77
2023-04-26T06:11:12.884Z,31.60
2023-04-26T06:13:45.318Z,30.73
2023-04-26T06:16:13.764Z,31.40
2023-04-26T06:18:41.867Z,30.07
2023-04-26T06:21:10.118Z,31.17
2023-04-26T06:23:38.304Z,32.07
2023-04-26T06:26:07.050Z,32.60
2023-04-26T06:28:35.391Z,33.13
2023-04-26T06:31:07.546Z,32.93
2023-04-26T06:33:35.629Z,35.13
2023-04-26T06:36:03.990Z,34.60
2023-04-26T06:38:32.097Z,31.10
2023-04-26T06:41:00.152Z,30.90
2023-04-26T06:43:28.414Z,29.57
2023-04-26T06:45:58.677Z,28.50
2023-04-26T06:48:28.580Z,20.48
2023-04-26T06:50:57.135Z,17.87
2023-04-26T06:53:25.306Z,17.93
2023-04-26T06:55:57.472Z,15.38
2023-04-26T06:58:25.961Z,14.48
2023-04-26T07:00:54.368Z,14.50
2023-04-26T07:03:22.759Z,15.00
2023-04-26T07:05:52.447Z,12.23
2023-04-26T07:08:20.758Z,8.68
2023-04-26T07:10:48.883Z,5.18
2023-04-26T07:13:17.158Z,6.50
2023-04-26T07:15:45.340Z,6.50
2023-04-26T07:18:13.814Z,7.07
2023-04-26T07:20:42.226Z,4.30
2023-04-26T07:23:11.964Z,5.13
2023-04-26T07:25:40.381Z,4.18
2023-04-26T07:28:08.753Z,5.72
2023-04-26T07:30:40.014Z,4.68
2023-04-26T07:33:08.493Z,6.00
2023-04-26T07:35:36.931Z,2.58
2023-04-26T07:38:05.131Z,3.63
2023-04-26T07:40:34.718Z,4.53
2023-04-26T07:43:03.536Z,5.70
2023-04-26T07:45:31.852Z,3.10
2023-04-26T07:48:00.236Z,2.28
2023-04-26T07:50:28.772Z,8.90
2023-04-26T07:52:57.276Z,3.42
2023-04-26T07:55:26.858Z,3.43
2023-04-26T07:57:56.895Z,2.53
2023-04-26T08:00:25.597Z,2.45
2023-04-26T08:02:54.114Z,4.88
2023-04-26T08:05:22.852Z,5.45
2023-04-26T08:07:51.496Z,2.80
2023-04-26T08:10:19.834Z,2.28
2023-04-26T08:12:48.306Z,2.70
2023-04-26T08:15:17.917Z,4.47
2023-04-26T08:17:47.348Z,6.88
2023-04-26T08:20:15.624Z,3.35
2023-04-26T08:22:44.201Z,4.72
2023-04-26T08:25:13.432Z,3.70
2023-04-26T08:27:45.012Z,3.55
2023-04-26T08:30:14.073Z,2.40
2023-04-26T08:32:44.489Z,5.22
2023-04-26T08:35:12.953Z,8.68
2023-04-26T08:37:41.238Z,4.97
2023-04-26T08:40:11.014Z,4.78
2023-04-26T08:42:43.938Z,5.97
2023-04-26T08:45:12.701Z,4.22
2023-04-26T08:47:49.472Z,7.55
2023-04-26T08:50:23.303Z,3.28
2023-04-26T08:52:53.349Z,3.53
2023-04-26T08:55:22.136Z,3.08
2023-04-26T08:57:51.306Z,3.65
2023-04-26T09:00:23.172Z,3.22
2023-04-26T09:02:54.272Z,3.40
2023-04-26T09:05:24.698Z,4.57
2023-04-26T09:07:57.907Z,3.85
2023-04-26T09:10:27.009Z,6.93
2023-04-26T09:12:55.763Z,2.90
2023-04-26T09:15:25.460Z,6.82
2023-04-26T09:17:55.616Z,4.00
2023-04-26T09:20:27.890Z,4.38
2023-04-26T09:23:06.213Z,3.67
2023-04-26T09:25:35.075Z,5.15
2023-04-26T09:28:04.469Z,4.15
2023-04-26T09:30:39.450Z,5.40
2023-04-26T09:33:09.732Z,4.90
2023-04-26T09:35:39.913Z,4.32
2023-04-26T09:38:13.274Z,4.28
2023-04-26T09:40:46.356Z,3.40
2023-04-26T09:43:16.096Z,1.98
2023-04-26T09:45:50.244Z,2.88
2023-04-26T09:48:23.083Z,2.30
2023-04-26T09:50:53.695Z,2.45
2023-04-26T09:53:31.054Z,5.57
2023-04-26T09:56:08.525Z,4.05
2023-04-26T09:58:42.372Z,2.15
2023-04-26T10:01:11.829Z,3.53
2023-04-26T10:03:48.192Z,3.17
2023-04-26T10:06:17.654Z,4.15
2023-04-26T10:09:01.645Z,1.60
2023-04-26T10:11:45.564Z,3.42
2023-04-26T10:14:15.761Z,2.17
2023-04-26T10:16:46.364Z,2.58
2023-04-26T10:19:19.872Z,4.22
2023-04-26T10:21:49.907Z,3.83
2023-04-26T10:24:19.660Z,2.92
2023-04-26T10:26:52.113Z,5.60
2023-04-26T10:29:20.563Z,5.20
2023-04-26T10:32:08.854Z,2.30
2023-04-26T10:34:38.840Z,5.43
2023-04-26T10:37:11.985Z,2.97
2023-04-26T10:39:41.579Z,2.60
2023-04-26T10:42:24.137Z,3.00
2023-04-26T10:44:53.739Z,2.83
2023-04-26T10:47:28.376Z,2.00
2023-04-26T10:50:06.501Z,4.47
2023-04-26T10:52:35.100Z,2.60
2023-04-26T10:55:03.919Z,3.72
2023-04-26T10:57:59.215Z,3.55
2023-04-26T11:00:31.944Z,3.42
2023-04-26T11:03:09.040Z,3.20
2023-04-26T11:06:09.885Z,5.22
2023-04-26T11:08:38.369Z,6.40
2023-04-26T11:11:12.177Z,4.25
2023-04-26T11:13:44.591Z,5.10
2023-04-26T11:16:13.968Z,6.25
2023-04-26T11:18:44.198Z,4.65
2023-04-26T11:21:17.793Z,3.22
2023-04-26T11:23:54.745Z,4.38
2023-04-26T11:26:22.830Z,3.83
2023-04-26T11:28:53.133Z,3.50
2023-04-26T11:31:21.446Z,2.63
2023-04-26T11:33:50.933Z,5.38
2023-04-26T11:36:20.923Z,3.00
2023-04-26T11:38:49.616Z,3.67
2023-04-26T11:41:18.582Z,5.03
2023-04-26T11:43:46.849Z,6.00
2023-04-26T11:46:15.074Z,7.25
2023-04-26T11:48:43.724Z,4.78
2023-04-26T11:51:14.922Z,3.78
2023-04-26T11:53:45.703Z,6.90
2023-04-26T11:56:18.220Z,2.78
2023-04-26T11:58:47.757Z,5.30
2023-04-26T12:01:23.270Z,6.18
2023-04-26T12:03:52.805Z,6.38
2023-04-26T12:06:21.645Z,3.55
2023-04-26T12:08:56.759Z,5.25
2023-04-26T12:11:24.833Z,3.17
2023-04-26T12:13:54.019Z,2.83
2023-04-26T12:16:26.749Z,2.80
2023-04-26T12:18:56.954Z,2.33
2023-04-26T12:21:30.424Z,2.88
2023-04-26T12:24:00.632Z,5.25
2023-04-26T12:26:45.468Z,5.68
2023-04-26T12:29:13.651Z,2.70
2023-04-26T12:31:42.175Z,3.88
2023-04-26T12:34:10.345Z,2.40
2023-04-26T12:36:38.529Z,3.95
2023-04-26T12:39:08.176Z,1.70
2023-04-26T12:41:36.210Z,3.67
2023-04-26T12:44:04.449Z,3.85
2023-04-26T12:46:32.703Z,2.17
2023-04-26T12:49:00.908Z,4.05
2023-04-26T12:51:29.539Z,3.00
2023-04-26T12:53:58.024Z,6.72
2023-04-26T12:56:28.534Z,4.90
2023-04-26T12:58:57.008Z,3.00
2023-04-26T13:01:25.249Z,4.35
2023-04-26T13:03:55.809Z,2.70
2023-04-26T13:06:24.036Z,4.60
2023-04-26T13:08:52.172Z,3.40
2023-04-26T13:11:23.251Z,5.53
2023-04-26T13:13:52.951Z,2.90
2023-04-26T13:16:21.136Z,2.75
2023-04-26T13:18:51.815Z,4.65
2023-04-26T13:21:19.995Z,3.00
2023-04-26T13:23:48.100Z,4.18
2023-04-26T13:26:17.977Z,3.90
2023-04-26T13:28:47.548Z,5.40
2023-04-26T13:31:19.472Z,2.92
2023-04-26T13:33:49.272Z,2.55
2023-04-26T13:36:17.708Z,1.95
2023-04-26T13:38:46.613Z,5.00
2023-04-26T13:41:14.977Z,3.45
2023-04-26T13:43:45.264Z,2.53
2023-04-26T13:46:13.979Z,3.75
2023-04-26T13:48:44.109Z,5.22
2023-04-26T13:51:12.920Z,3.65
2023-04-26T13:53:44.320Z,3.55
2023-04-26T13:56:12.662Z,2.13
2023-04-26T13:58:43.610Z,3.25
2023-04-26T14:01:11.877Z,3.65
2023-04-26T14:03:41.473Z,2.90
2023-04-26T14:06:11.177Z,3.38
2023-04-26T14:08:46.576Z,1.80
2023-04-26T14:11:14.879Z,4.55
2023-04-26T14:13:43.186Z,7.22
2023-04-26T14:16:11.468Z,4.72
2023-04-26T14:18:46.028Z,3.15
2023-04-26T14:21:15.801Z,3.47
2023-04-26T14:23:48.762Z,2.22
2023-04-26T14:26:19.741Z,3.20
2023-04-26T14:28:48.274Z,3.97
2023-04-26T14:31:18.246Z,3.08
2023-04-26T14:33:46.675Z,3.03
2023-04-26T14:36:16.606Z,3.80
2023-04-26T14:38:46.810Z,4.07
2023-04-26T14:41:18.594Z,2.78
2023-04-26T14:43:48.065Z,4.05
2023-04-26T14:46:16.981Z,5.40
2023-04-26T14:48:45.574Z,6.75
2023-04-26T14:51:15.204Z,2.70
2023-04-26T14:53:46.329Z,2.75
2023-04-26T14:56:14.377Z,3.72
2023-04-26T14:58:42.762Z,3.17
2023-04-26T15:01:10.937Z,4.40
2023-04-26T15:03:39.427Z,4.47
2023-04-26T15:06:09.854Z,3.05
2023-04-26T15:08:39.498Z,5.28
2023-04-26T15:11:07.879Z,3.97
2023-04-26T15:13:36.176Z,3.65
2023-04-26T15:16:08.779Z,5.63
2023-04-26T15:18:37.525Z,4.88
2023-04-26T15:21:05.778Z,4.15
2023-04-26T15:23:34.275Z,2.90
2023-04-26T15:26:05.273Z,4.03
2023-04-26T15:28:34.040Z,4.40
2023-04-26T15:31:06.114Z,3.40
2023-04-26T15:33:34.419Z,3.53
2023-04-26T15:36:02.584Z,4.30
2023-04-26T15:38:30.813Z,6.13
2023-04-26T15:40:58.919Z,5.00
2023-04-26T15:43:28.607Z,4.40
2023-04-26T15:45:57.332Z,4.60
2023-04-26T15:48:26.110Z,5.35
2023-04-26T15:50:56.660Z,3.78
2023-04-26T15:53:25.084Z,4.43
2023-04-26T15:55:53.193Z,5.00
2023-04-26T15:58:22.391Z,4.25
2023-04-26T16:00:51.982Z,7.30
2023-04-26T16:03:20.319Z,3.97
2023-04-26T16:05:48.891Z,4.97
2023-04-26T16:08:27.710Z,3.83
2023-04-26T16:11:05.997Z,4.28
2023-04-26T16:13:34.557Z,3.97
2023-04-26T16:16:08.260Z,4.32
2023-04-26T16:18:36.656Z,4.45
2023-04-26T16:21:05.690Z,4.72
2023-04-26T16:23:34.198Z,4.53
2023-04-26T16:26:02.589Z,4.97
2023-04-26T16:28:31.069Z,3.78
2023-04-26T16:30:59.282Z,6.45
2023-04-26T16:33:29.060Z,6.30
2023-04-26T16:35:57.096Z,3.15
2023-04-26T16:38:25.279Z,4.35
2023-04-26T16:40:59.777Z,3.90
2023-04-26T16:43:28.351Z,5.00
2023-04-26T16:46:00.507Z,3.97
2023-04-26T16:48:32.736Z,3.15
2023-04-26T16:51:01.011Z,2.78
2023-04-26T16:53:29.524Z,3.00
2023-04-26T16:55:58.320Z,4.50
2023-04-26T16:58:26.598Z,6.53
2023-04-26T17:00:55.814Z,5.60
2023-04-26T17:03:25.281Z,3.83
2023-04-26T17:05:55.693Z,5.53
2023-04-26T17:08:24.105Z,4.47
2023-04-26T17:10:52.847Z,4.70
2023-04-26T17:13:21.404Z,4.82
2023-04-26T17:15:49.852Z,3.60
2023-04-26T17:18:18.405Z,4.63
2023-04-26T17:20:48.553Z,2.97
2023-04-26T17:23:18.254Z,2.63
2023-04-26T17:25:46.920Z,3.20
2023-04-26T17:28:16.711Z,4.00
2023-04-26T17:30:45.128Z,5.05
2023-04-26T17:33:13.772Z,4.13
2023-04-26T17:35:42.111Z,4.68
2023-04-26T17:38:10.413Z,5.05
2023-04-26T17:40:40.467Z,4.32
2023-04-26T17:43:08.864Z,6.10
2023-04-26T17:45:37.025Z,4.22
2023-04-26T17:48:06.080Z,2.65
2023-04-26T17:50:34.327Z,2.75
2023-04-26T17:53:04.661Z,4.25
2023-04-26T17:55:34.874Z,3.45
2023-04-26T17:58:04.848Z,5.25
2023-04-26T18:00:46.167Z,4.35
2023-04-26T18:03:14.741Z,6.30
2023-04-26T18:05:43.209Z,4.97
2023-04-26T18:08:11.593Z,2.25
2023-04-26T18:10:40.049Z,5.43
2023-04-26T18:13:11.199Z,2.70
2023-04-26T18:15:39.724Z,3.95
2023-04-26T18:18:08.162Z,4.10
2023-04-26T18:20:37.226Z,3.63
2023-04-26T18:23:05.436Z,3.05
2023-04-26T18:25:33.848Z,6.97
2023-04-26T18:28:04.563Z,6.00
2023-04-26T18:30:34.227Z,6.97
2023-04-26T18:33:02.677Z,8.20
2023-04-26T18:35:31.909Z,2.97
2023-04-26T18:38:00.440Z,3.00
2023-04-26T18:40:29.033Z,3.88
2023-04-26T18:42:57.429Z,4.97
2023-04-26T18:45:26.113Z,6.75
2023-04-26T18:48:00.873Z,3.50
2023-04-26T18:50:29.258Z,4.07
2023-04-26T18:52:59.945Z,7.22
2023-04-26T18:55:28.576Z,4.05
2023-04-26T18:57:57.347Z,4.97
2023-04-26T19:00:28.967Z,5.10
2023-04-26T19:02:58.871Z,7.50
2023-04-26T19:05:27.280Z,4.50
2023-04-26T19:07:55.540Z,4.18
2023-04-26T19:10:26.035Z,6.28
2023-04-26T19:12:57.727Z,5.90
2023-04-26T19:15:26.522Z,5.15
2023-04-26T19:17:54.926Z,4.85
2023-04-26T19:20:27.002Z,5.82
2023-04-26T19:22:55.876Z,4.53
2023-04-26T19:25:24.798Z,5.00
2023-04-26T19:27:53.173Z,6.82
2023-04-26T19:30:22.188Z,4.00
2023-04-26T19:32:50.775Z,5.78
2023-04-26T19:35:19.348Z,6.15
2023-04-26T19:37:53.061Z,4.50
2023-04-26T19:40:24.214Z,4.97
2023-04-26T19:42:55.789Z,8.35
2023-04-26T19:45:26.695Z,4.35
2023-04-26T19:47:55.406Z,4.65
2023-04-26T19:50:23.826Z,5.03
2023-04-26T19:52:53.606Z,4.35
2023-04-26T19:55:22.413Z,4.63
2023-04-26T19:57:52.325Z,7.18
2023-04-26T20:00:20.761Z,8.25
2023-04-26T20:02:51.796Z,5.32
2023-04-26T20:05:20.191Z,6.93
2023-04-26T20:07:50.297Z,6.05
2023-04-26T20:10:20.581Z,4.05
2023-04-26T20:12:48.912Z,6.90
2023-04-26T20:15:18.165Z,13.52
2023-04-26T20:17:46.640Z,6.78
2023-04-26T20:20:15.123Z,5.68
2023-04-26T20:22:43.492Z,6.50
2023-04-26T20:25:12.692Z,3.97
2023-04-26T20:27:42.355Z,5.22
2023-04-26T20:30:12.172Z,6.33
2023-04-26T20:32:40.847Z,8.27
2023-04-26T20:35:09.996Z,7.57
2023-04-26T20:37:38.983Z,4.47
2023-04-26T20:40:11.821Z,8.05
2023-04-26T20:42:43.067Z,6.05
2023-04-26T20:45:13.303Z,5.40
2023-04-26T20:47:44.603Z,5.22
2023-04-26T20:50:13.307Z,4.53
2023-04-26T20:52:46.527Z,6.40
2023-04-26T20:55:14.671Z,7.10
2023-04-26T20:57:45.840Z,10.40
2023-04-26T21:00:14.887Z,8.37
2023-04-26T21:02:44.789Z,7.70
2023-04-26T21:05:13.023Z,6.43
2023-04-26T21:07:44.165Z,9.97
2023-04-26T21:10:12.623Z,9.77
2023-04-26T21:12:44.017Z,11.17
2023-04-26T21:15:12.753Z,9.00
2023-04-26T21:17:41.469Z,7.77
2023-04-26T21:20:10.250Z,8.50
2023-04-26T21:22:38.356Z,9.17
2023-04-26T21:25:07.957Z,10.73
2023-04-26T21:27:36.482Z,8.63
2023-04-26T21:30:07.671Z,8.40
2023-04-26T21:32:37.736Z,7.53
2023-04-26T21:35:06.591Z,9.13
2023-04-26T21:37:34.710Z,8.97
2023-04-26T21:40:05.076Z,8.60
2023-04-26T21:42:35.423Z,8.17
2023-04-26T21:45:03.571Z,10.97
2023-04-26T21:47:33.402Z,13.87
2023-04-26T21:50:01.601Z,8.87
2023-04-26T21:52:31.814Z,8.67
2023-04-26T21:54:59.877Z,10.00
2023-04-26T21:57:28.170Z,9.53
2023-04-26T21:59:57.169Z,8.63
2023-04-26T22:02:26.082Z,9.23
2023-04-26T22:04:57.023Z,8.37
2023-04-26T22:07:25.180Z,8.70
2023-04-26T22:09:53.297Z,9.00
2023-04-26T22:12:21.731Z,7.93
2023-04-26T22:14:49.882Z,8.30
2023-04-26T22:17:18.036Z,7.07
2023-04-26T22:19:46.394Z,10.50
2023-04-26T22:22:16.034Z,9.23
2023-04-26T22:24:44.254Z,13.70
2023-04-26T22:27:12.448Z,12.33
2023-04-26T22:29:40.566Z,9.23
2023-04-26T22:32:08.872Z,8.27
2023-04-26T22:34:42.249Z,10.27
2023-04-26T22:37:20.747Z,9.00
2023-04-26T22:39:52.987Z,7.33
2023-04-26T22:42:21.048Z,7.07
2023-04-26T22:44:49.124Z,9.80
2023-04-26T22:47:18.440Z,11.43
2023-04-26T22:49:46.607Z,10.63
2023-04-26T22:52:24.310Z,6.93
2023-04-26T22:55:00.967Z,9.97
2023-04-26T22:57:29.886Z,9.93
2023-04-26T22:59:58.473Z,9.43
2023-04-26T23:02:27.082Z,8.20
2023-04-26T23:04:55.720Z,8.87
2023-04-26T23:07:23.996Z,9.73
2023-04-26T23:09:52.102Z,12.13
2023-04-26T23:12:21.670Z,10.00
2023-04-26T23:14:50.810Z,9.53
2023-04-26T23:17:20.470Z,10.00
2023-04-26T23:19:49.046Z,10.30
2023-04-26T23:22:17.154Z,10.60
2023-04-26T23:24:45.436Z,10.87
2023-04-26T23:27:13.546Z,9.47
2023-04-26T23:29:43.317Z,9.03
2023-04-26T23:32:11.326Z,9.90
2023-04-26T23:34:41.153Z,8.27
2023-04-26T23:37:09.201Z,10.97
2023-04-26T23:39:37.410Z,11.53
2023-04-26T23:42:05.829Z,12.83
2023-04-26T23:44:34.110Z,12.87
2023-04-26T23:47:03.759Z,11.97
2023-04-26T23:49:32.071Z,10.97
2023-04-26T23:52:00.071Z,11.93
2023-04-26T23:54:28.470Z,11.67
2023-04-26T23:56:56.820Z,11.83
2023-04-26T23:59:24.900Z,13.87
